Time;durP1;ratioP1;P1;durP2;ratioP2;P2;SDS_P1;SDS_P2;PMS_P1;PMS_P2;Temp;Humidity;BMP_temperature;BMP_pressure;BME280_temperature;BME280_humidity;BME280_pressure;Samples;Min_cycle;Max_cycle;Signal;HPM_P1;HPM_P2
2021/04/16 00:01:20;;;;;;;8.03;5.73;;;3.10;99.90;;;;;;5054947;28;20457;-49
2021/04/16 00:03:48;;;;;;;7.60;5.53;;;3.20;99.90;;;;;;5054648;28;20490;-49
2021/04/16 00:06:14;;;;;;;9.50;6.67;;;3.20;99.90;;;;;;5054738;28;20543;-48
2021/04/16 00:08:41;;;;;;;10.90;6.43;;;3.10;99.90;;;;;;5063458;28;20946;-49
2021/04/16 00:11:11;;;;;;;10.87;6.23;;;3.10;99.90;;;;;;5074889;28;20939;-49
2021/04/16 00:13:38;;;;;;;10.23;6.60;;;3.00;99.90;;;;;;5074840;28;20437;-49
2021/04/16 00:16:06;;;;;;;8.07;5.80;;;2.80;99.90;;;;;;5074784;28;20986;-48
2021/04/16 00:18:33;;;;;;;11.10;7.00;;;2.80;99.90;;;;;;5070419;28;20451;-49
2021/04/16 00:21:01;;;;;;;9.03;6.10;;;2.90;99.90;;;;;;5054795;28;20455;-48
2021/04/16 00:23:28;;;;;;;14.63;6.63;;;2.80;99.90;;;;;;5059579;28;20995;-49
2021/04/16 00:25:55;;;;;;;9.53;6.37;;;2.80;99.90;;;;;;5054431;28;20472;-49
2021/04/16 00:28:22;;;;;;;13.20;7.03;;;2.70;99.90;;;;;;5054606;28;20451;-48
2021/04/16 00:30:52;;;;;;;10.97;6.70;;;2.50;99.90;;;;;;5054075;28;20477;-49
2021/04/16 00:33:19;;;;;;;9.97;5.90;;;2.50;99.90;;;;;;5054292;28;20442;-49
2021/04/16 00:35:46;;;;;;;10.70;7.00;;;2.50;99.90;;;;;;5054378;28;20508;-49
2021/04/16 00:38:14;;;;;;;9.80;6.23;;;2.40;99.90;;;;;;5054310;28;20875;-49
2021/04/16 00:40:43;;;;;;;12.80;6.23;;;2.40;99.90;;;;;;5068948;28;20961;-49
2021/04/16 00:43:12;;;;;;;11.53;6.50;;;2.30;99.90;;;;;;5054300;28;20485;-49
2021/04/16 00:45:39;;;;;;;10.37;6.30;;;2.30;99.90;;;;;;5053983;28;20879;-49
2021/04/16 00:48:11;;;;;;;8.20;5.73;;;2.30;99.90;;;;;;5053863;28;20510;-49
2021/04/16 00:50:44;;;;;;;10.27;6.50;;;2.30;99.90;;;;;;5054168;28;20450;-49
2021/04/16 00:53:11;;;;;;;8.07;5.60;;;2.40;99.90;;;;;;5052673;28;20545;-49
2021/04/16 00:55:39;;;;;;;11.93;6.23;;;2.30;99.90;;;;;;5054604;28;21025;-48
2021/04/16 00:58:05;;;;;;;8.77;6.00;;;2.40;99.90;;;;;;5053580;28;20449;-49
2021/04/16 01:00:33;;;;;;;8.70;6.10;;;2.40;99.90;;;;;;5053962;28;20524;-48
2021/04/16 01:03:00;;;;;;;10.00;6.43;;;2.20;99.90;;;;;;5053425;28;20502;-49
2021/04/16 01:05:27;;;;;;;10.50;6.57;;;2.00;99.90;;;;;;5053604;28;20557;-49
2021/04/16 01:07:54;;;;;;;11.43;6.40;;;2.20;99.90;;;;;;5053460;28;20459;-49
2021/04/16 01:10:22;;;;;;;9.27;6.00;;;2.30;99.90;;;;;;5053745;28;20462;-49
2021/04/16 01:12:52;;;;;;;9.70;6.07;;;2.30;99.90;;;;;;5053374;28;20447;-49
2021/04/16 01:15:25;;;;;;;11.17;6.13;;;2.40;99.90;;;;;;5053335;28;20566;-49
2021/04/16 01:17:53;;;;;;;10.37;6.63;;;2.30;99.90;;;;;;5053312;28;20452;-49
2021/04/16 01:20:24;;;;;;;9.07;6.30;;;2.20;99.90;;;;;;5052931;28;20549;-49
2021/04/16 01:23:02;;;;;;;13.93;6.27;;;1.90;99.90;;;;;;5053410;28;21067;-48
2021/04/16 01:25:30;;;;;;;11.77;6.77;;;1.70;99.90;;;;;;5053258;28;20542;-49
2021/04/16 01:27:57;;;;;;;12.10;6.90;;;1.70;99.90;;;;;;5057450;28;20455;-49
2021/04/16 01:30:26;;;;;;;10.10;6.50;;;1.80;99.90;;;;;;5052758;28;20452;-48
2021/04/16 01:32:54;;;;;;;11.60;6.30;;;2.00;99.90;;;;;;5053551;28;20449;-49
2021/04/16 01:35:24;;;;;;;15.60;6.70;;;2.10;99.90;;;;;;5053150;28;21043;-49
2021/04/16 01:37:51;;;;;;;13.00;6.73;;;2.00;99.90;;;;;;5052893;28;20446;-48
2021/04/16 01:40:22;;;;;;;11.50;7.30;;;1.70;99.90;;;;;;5053118;28;20452;-49
2021/04/16 01:42:50;;;;;;;11.40;7.00;;;1.50;99.90;;;;;;5059671;28;20480;-49
2021/04/16 01:45:20;;;;;;;11.07;6.57;;;1.60;99.90;;;;;;5059299;28;21010;-49
2021/04/16 01:47:53;;;;;;;12.30;7.33;;;1.80;99.90;;;;;;5072931;28;20453;-49
2021/04/16 01:50:20;;;;;;;11.60;7.30;;;1.80;99.90;;;;;;5073034;28;20454;-49
2021/04/16 01:52:46;;;;;;;10.70;6.80;;;1.90;99.90;;;;;;5053766;28;20975;-49
2021/04/16 01:55:13;;;;;;;12.93;7.33;;;1.90;99.90;;;;;;5052828;28;20479;-49
2021/04/16 01:57:39;;;;;;;9.73;6.03;;;1.90;99.90;;;;;;5055166;28;20450;-50
2021/04/16 02:00:11;;;;;;;10.03;6.80;;;1.90;99.90;;;;;;5060094;28;20511;-49
2021/04/16 02:02:38;;;;;;;10.80;6.70;;;1.90;99.90;;;;;;5052371;28;20469;-49
2021/04/16 02:05:05;;;;;;;10.43;7.03;;;1.90;99.90;;;;;;5075573;22;20492;-52
2021/04/16 02:07:34;;;;;;;12.83;6.40;;;1.90;99.90;;;;;;5052477;28;20480;-53
2021/04/16 02:10:00;;;;;;;11.70;6.67;;;2.00;99.90;;;;;;5052972;28;20452;-52
2021/04/16 02:12:27;;;;;;;12.67;7.97;;;1.90;99.90;;;;;;5053954;28;20442;-52
2021/04/16 02:14:55;;;;;;;10.47;7.40;;;1.90;99.90;;;;;;5051360;28;20453;-52
2021/04/16 02:17:26;;;;;;;16.30;7.90;;;1.90;99.90;;;;;;5048665;28;20455;-52
2021/04/16 02:19:53;;;;;;;13.97;8.00;;;1.80;99.90;;;;;;5051467;28;20536;-52
2021/04/16 02:22:22;;;;;;;13.90;8.23;;;1.90;99.90;;;;;;5052313;28;20967;-52
2021/04/16 02:24:49;;;;;;;10.67;7.60;;;1.80;99.90;;;;;;5052053;28;20444;-52
2021/04/16 02:27:17;;;;;;;12.47;7.97;;;1.80;99.90;;;;;;5037708;28;20445;-52
2021/04/16 02:29:43;;;;;;;12.43;7.77;;;1.80;99.90;;;;;;5049024;28;20454;-52
2021/04/16 02:32:13;;;;;;;13.20;7.43;;;1.80;99.90;;;;;;5032397;28;20452;-52
2021/04/16 02:34:40;;;;;;;12.00;7.07;;;1.80;99.90;;;;;;5032137;28;20454;-52
2021/04/16 02:37:13;;;;;;;14.17;7.93;;;1.80;99.90;;;;;;5032155;28;20480;-52
2021/04/16 02:39:40;;;;;;;12.30;7.37;;;1.70;99.90;;;;;;5032298;28;20454;-52
2021/04/16 02:42:07;;;;;;;12.20;7.63;;;1.70;99.90;;;;;;5045889;28;20457;-52
2021/04/16 02:44:34;;;;;;;12.70;7.17;;;1.70;99.90;;;;;;5051275;28;20520;-52
2021/04/16 02:47:01;;;;;;;12.20;7.23;;;1.60;99.90;;;;;;5051096;28;20991;-52
2021/04/16 02:49:27;;;;;;;12.00;8.23;;;1.60;99.90;;;;;;5051302;28;20458;-52
2021/04/16 02:51:56;;;;;;;15.23;8.10;;;1.60;99.90;;;;;;5051256;28;20448;-52
2021/04/16 02:54:23;;;;;;;14.97;7.73;;;1.60;99.90;;;;;;5051773;28;20460;-52
2021/04/16 02:56:49;;;;;;;12.07;7.67;;;1.60;99.90;;;;;;5052045;28;20512;-52
2021/04/16 02:59:18;;;;;;;15.00;8.43;;;1.50;99.90;;;;;;5050676;28;20455;-52
2021/04/16 03:01:45;;;;;;;12.70;7.47;;;1.20;99.90;;;;;;5031725;28;20456;-52
2021/04/16 03:04:11;;;;;;;16.60;9.20;;;1.20;99.90;;;;;;5031948;28;20516;-52
2021/04/16 03:06:38;;;;;;;14.93;8.33;;;1.20;99.90;;;;;;5050064;28;20487;-52
2021/04/16 03:09:06;;;;;;;13.60;8.13;;;1.20;99.90;;;;;;5051221;28;20447;-52
2021/04/16 03:11:33;;;;;;;12.90;8.30;;;1.00;99.90;;;;;;5051481;28;20444;-52
2021/04/16 03:13:59;;;;;;;11.63;7.33;;;1.10;99.90;;;;;;5051430;28;20826;-52
2021/04/16 03:16:27;;;;;;;11.73;7.30;;;1.20;99.90;;;;;;5049228;28;20470;-52
2021/04/16 03:18:56;;;;;;;13.70;8.00;;;1.20;99.90;;;;;;5051125;28;20453;-52
2021/04/16 03:21:24;;;;;;;14.47;7.97;;;1.20;99.90;;;;;;5051741;28;20444;-52
2021/04/16 03:23:51;;;;;;;14.37;8.30;;;1.30;99.90;;;;;;5051785;28;20484;-52
2021/04/16 03:26:19;;;;;;;16.10;7.50;;;1.20;99.90;;;;;;5051516;28;20985;-53
2021/04/16 03:28:46;;;;;;;13.73;7.67;;;1.10;99.90;;;;;;5050785;28;20452;-52
2021/04/16 03:31:13;;;;;;;13.10;7.73;;;1.10;99.90;;;;;;5049470;28;20449;-52
2021/04/16 03:33:40;;;;;;;12.13;7.20;;;1.10;99.90;;;;;;5050976;28;21023;-52
2021/04/16 03:36:08;;;;;;;11.97;8.00;;;1.10;99.90;;;;;;5051302;28;20495;-52
2021/04/16 03:38:35;;;;;;;13.83;7.60;;;1.10;99.90;;;;;;5051320;28;20452;-52
2021/04/16 03:41:01;;;;;;;12.60;7.60;;;1.10;99.90;;;;;;5051345;28;20945;-52
2021/04/16 03:43:28;;;;;;;13.43;7.73;;;1.00;99.90;;;;;;5051159;28;20879;-52
2021/04/16 03:45:55;;;;;;;12.20;7.60;;;1.10;99.90;;;;;;5050969;28;20472;-53
2021/04/16 03:48:21;;;;;;;14.10;7.53;;;1.10;99.90;;;;;;5034537;28;20456;-52
2021/04/16 03:50:48;;;;;;;12.07;6.70;;;1.00;99.90;;;;;;5046771;28;20479;-52
2021/04/16 03:53:14;;;;;;;13.80;7.27;;;1.00;99.90;;;;;;5051315;28;20448;-52
2021/04/16 03:55:41;;;;;;;12.10;7.60;;;0.90;99.90;;;;;;5050874;28;20468;-52
2021/04/16 03:58:09;;;;;;;13.40;7.97;;;0.80;99.90;;;;;;5031320;28;20452;-52
2021/04/16 04:00:38;;;;;;;11.37;6.90;;;0.90;99.90;;;;;;5033441;28;20444;-52
2021/04/16 04:03:05;;;;;;;12.13;6.80;;;0.90;99.90;;;;;;5031346;28;20481;-52
2021/04/16 04:05:32;;;;;;;11.83;7.50;;;1.00;99.90;;;;;;5046205;28;20487;-52
2021/04/16 04:07:59;;;;;;;14.33;7.43;;;0.80;99.90;;;;;;5050933;28;20508;-52
2021/04/16 04:10:26;;;;;;;10.67;7.17;;;0.80;99.90;;;;;;5051055;28;20987;-52
2021/04/16 04:12:53;;;;;;;14.17;7.00;;;0.80;99.90;;;;;;5051298;28;20451;-52
2021/04/16 04:15:21;;;;;;;12.40;8.00;;;0.80;99.90;;;;;;5050615;28;20463;-52
2021/04/16 04:17:50;;;;;;;14.10;7.90;;;0.90;99.90;;;;;;5033737;28;20455;-52
2021/04/16 04:20:20;;;;;;;14.43;7.83;;;0.90;99.90;;;;;;5031377;28;20475;-52
2021/04/16 04:22:47;;;;;;;13.10;7.70;;;0.90;99.90;;;;;;5031007;28;20445;-52
2021/04/16 04:25:17;;;;;;;12.30;7.33;;;0.90;99.90;;;;;;5031209;28;20553;-53
2021/04/16 04:27:43;;;;;;;15.07;8.30;;;0.90;99.90;;;;;;5036409;28;20452;-52
2021/04/16 04:30:11;;;;;;;16.30;8.47;;;1.00;99.90;;;;;;5054281;28;20830;-52
2021/04/16 04:32:37;;;;;;;16.27;7.50;;;0.90;99.90;;;;;;5044034;28;20539;-52
2021/04/16 04:35:06;;;;;;;17.70;9.60;;;0.90;99.90;;;;;;5034357;28;20448;-52
2021/04/16 04:37:36;;;;;;;18.90;10.13;;;0.80;99.90;;;;;;5034478;28;20445;-52
2021/04/16 04:40:03;;;;;;;16.20;9.70;;;0.80;99.90;;;;;;5034477;28;20455;-52
2021/04/16 04:42:30;;;;;;;14.37;8.00;;;0.80;99.90;;;;;;5045003;28;20799;-52
2021/04/16 04:44:56;;;;;;;15.63;9.10;;;0.80;99.90;;;;;;5053890;28;20492;-52
2021/04/16 04:47:23;;;;;;;15.30;8.90;;;0.60;99.90;;;;;;5054139;28;20452;-52
2021/04/16 04:49:49;;;;;;;14.47;8.10;;;0.70;99.90;;;;;;5035342;28;20457;-52
2021/04/16 04:52:20;;;;;;;13.43;8.03;;;0.80;99.90;;;;;;5034034;28;20962;-52
2021/04/16 04:54:48;;;;;;;14.33;7.70;;;0.90;99.90;;;;;;5051801;28;20995;-52
2021/04/16 04:57:16;;;;;;;14.17;8.40;;;0.90;99.90;;;;;;5053350;28;20461;-52
2021/04/16 04:59:43;;;;;;;13.17;8.60;;;1.00;99.90;;;;;;5053634;28;20448;-52
2021/04/16 05:02:09;;;;;;;17.90;10.20;;;1.10;99.90;;;;;;5052424;28;20448;-52
2021/04/16 05:04:36;;;;;;;14.27;8.83;;;1.10;99.90;;;;;;5053787;28;20479;-52
2021/04/16 05:07:03;;;;;;;20.43;9.93;;;1.10;99.90;;;;;;5053581;28;20491;-52
2021/04/16 05:09:30;;;;;;;16.00;9.23;;;1.10;99.90;;;;;;5051878;28;20448;-52
2021/04/16 05:11:56;;;;;;;20.90;12.20;;;1.10;99.90;;;;;;5047755;28;20510;-52
2021/04/16 05:14:23;;;;;;;17.10;10.60;;;1.20;99.90;;;;;;5053510;28;20450;-52
2021/04/16 05:16:50;;;;;;;16.77;10.00;;;1.30;99.90;;;;;;5053734;28;20469;-52
2021/04/16 05:19:16;;;;;;;14.07;8.33;;;1.40;99.90;;;;;;5055657;28;20530;-52
2021/04/16 05:21:43;;;;;;;14.20;9.10;;;1.50;99.90;;;;;;5049392;28;20465;-52
2021/04/16 05:24:11;;;;;;;15.60;9.23;;;1.60;99.90;;;;;;5048988;28;21011;-52
2021/04/16 05:26:39;;;;;;;18.00;10.53;;;1.70;99.90;;;;;;5052424;28;20854;-52
2021/04/16 05:29:08;;;;;;;22.07;12.03;;;1.90;99.90;;;;;;5051228;28;20462;-52
2021/04/16 05:31:36;;;;;;;20.73;11.17;;;2.40;99.90;;;;;;5045312;28;20453;-52
2021/04/16 05:34:03;;;;;;;17.63;10.27;;;3.10;99.90;;;;;;5033484;28;20450;-52
2021/04/16 05:36:30;;;;;;;13.07;9.20;;;4.00;99.90;;;;;;5047539;28;20491;-53
2021/04/16 05:38:56;;;;;;;14.47;8.97;;;4.90;99.90;;;;;;5062381;28;20448;-52
2021/04/16 05:41:23;;;;;;;17.60;10.17;;;5.60;99.90;;;;;;5053115;28;20484;-52
2021/04/16 05:43:51;;;;;;;17.40;10.63;;;6.30;99.90;;;;;;5053125;28;21104;-52
2021/04/16 05:46:18;;;;;;;15.90;10.37;;;6.90;99.90;;;;;;5052969;28;20468;-52
2021/04/16 05:48:44;;;;;;;17.20;10.17;;;7.30;99.90;;;;;;5052843;28;20454;-52
2021/04/16 05:51:12;;;;;;;15.07;9.93;;;7.40;99.90;;;;;;5053112;28;20458;-52
2021/04/16 05:53:39;;;;;;;16.63;9.90;;;8.10;99.90;;;;;;5052012;28;20448;-53
2021/04/16 05:56:06;;;;;;;12.13;8.20;;;8.20;99.90;;;;;;5051284;28;20464;-53
2021/04/16 05:58:35;;;;;;;16.73;9.20;;;7.80;99.90;;;;;;5052711;28;20451;-51
2021/04/16 06:01:03;;;;;;;15.60;10.13;;;8.20;99.90;;;;;;5052857;28;20432;-53
2021/04/16 06:03:29;;;;;;;17.63;9.20;;;8.80;99.90;;;;;;5052708;28;20528;-53
2021/04/16 06:05:58;;;;;;;14.30;8.93;;;9.10;99.70;;;;;;5052820;28;20479;-53
2021/04/16 06:08:25;;;;;;;14.33;8.10;;;9.40;99.40;;;;;;5052361;28;20872;-53
2021/04/16 06:10:52;;;;;;;8.93;6.70;;;9.90;97.50;;;;;;5052401;28;20452;-53
2021/04/16 06:13:19;;;;;;;9.50;7.03;;;10.50;95.60;;;;;;5065781;28;20816;-53
2021/04/16 06:15:46;;;;;;;12.00;8.10;;;11.00;94.80;;;;;;5072327;28;20503;-53
2021/04/16 06:18:13;;;;;;;12.50;6.73;;;10.10;94.00;;;;;;5072431;28;20449;-53
2021/04/16 06:20:40;;;;;;;12.30;7.33;;;10.20;94.80;;;;;;5072637;28;20455;-53
2021/04/16 06:23:07;;;;;;;12.17;7.70;;;10.60;93.70;;;;;;5072115;28;20533;-53
2021/04/16 06:25:34;;;;;;;10.63;7.70;;;10.60;93.40;;;;;;5072394;28;20470;-53
2021/04/16 06:28:02;;;;;;;15.90;7.83;;;10.40;93.00;;;;;;5059150;28;20456;-53
2021/04/16 06:30:29;;;;;;;12.87;8.00;;;10.30;93.70;;;;;;5051630;28;20466;-53
2021/04/16 06:33:06;;;;;;;11.90;8.70;;;10.50;93.80;;;;;;5070036;28;20478;-52
2021/04/16 06:35:36;;;;;;;10.03;7.40;;;10.70;92.30;;;;;;5071982;28;20826;-52
2021/04/16 06:38:03;;;;;;;11.10;8.00;;;11.00;92.10;;;;;;5071925;28;20944;-51
2021/04/16 06:40:30;;;;;;;10.00;7.63;;;11.70;91.70;;;;;;5062297;28;20455;-51
2021/04/16 06:42:58;;;;;;;14.03;9.17;;;12.20;90.90;;;;;;5050805;28;20451;-51
2021/04/16 06:45:28;;;;;;;10.40;7.90;;;12.40;88.80;;;;;;5051489;28;21011;-50
2021/04/16 06:47:58;;;;;;;9.87;7.67;;;12.00;89.50;;;;;;5045734;28;20460;-51
2021/04/16 06:50:27;;;;;;;12.20;9.07;;;11.10;89.90;;;;;;5041982;28;20527;-53
2021/04/16 06:53:02;;;;;;;11.40;8.63;;;10.90;90.70;;;;;;5044236;28;20468;-52
2021/04/16 06:55:31;;;;;;;19.47;11.80;;;11.40;90.30;;;;;;5043484;28;20488;-52
2021/04/16 06:58:03;;;;;;;13.67;9.63;;;11.00;90.80;;;;;;5043887;28;20463;-52
2021/04/16 07:00:39;;;;;;;12.27;8.33;;;11.70;91.40;;;;;;5043182;28;20459;-53
2021/04/16 07:03:13;;;;;;;10.87;8.27;;;12.30;89.70;;;;;;5041547;28;20472;-52
2021/04/16 07:05:42;;;;;;;11.63;8.00;;;11.80;90.90;;;;;;5047419;28;20486;-52
2021/04/16 07:08:22;;;;;;;11.73;9.20;;;10.30;92.40;;;;;;5041538;28;20448;-53
2021/04/16 07:10:53;;;;;;;9.93;8.37;;;9.80;93.00;;;;;;5034042;28;20292;-54
2021/04/16 07:13:29;;;;;;;11.00;8.80;;;10.60;91.10;;;;;;5042056;28;20526;-53
2021/04/16 07:15:55;;;;;;;11.47;8.90;;;10.30;91.80;;;;;;5045045;28;20569;-53
2021/04/16 07:18:29;;;;;;;11.87;8.40;;;10.80;91.30;;;;;;5042906;28;20464;-53
2021/04/16 07:20:56;;;;;;;13.18;9.38;;;10.90;90.80;;;;;;5043584;28;20506;-52
2021/04/16 07:23:24;;;;;;;12.83;9.33;;;10.90;90.60;;;;;;5045011;28;20235;-52
2021/04/16 07:26:06;;;;;;;13.13;8.50;;;11.00;90.40;;;;;;5042988;28;20482;-53
2021/04/16 07:28:48;;;;;;;14.90;9.27;;;11.50;90.20;;;;;;5042658;28;20466;-53
2021/04/16 07:31:46;;;;;;;13.50;9.03;;;11.70;89.20;;;;;;5043847;28;20479;-52
2021/04/16 07:34:32;;;;;;;10.60;8.17;;;11.40;89.30;;;;;;5047750;28;20439;-53
2021/04/16 07:37:10;;;;;;;13.03;8.90;;;12.00;88.70;;;;;;5043917;28;20487;-52
2021/04/16 07:39:44;;;;;;;12.37;8.73;;;13.00;84.20;;;;;;5042626;28;20494;-51
2021/04/16 07:42:22;;;;;;;12.40;9.00;;;12.50;84.10;;;;;;5045547;28;20455;-51
2021/04/16 07:45:33;;;;;;;13.87;9.30;;;13.20;84.80;;;;;;5043907;28;20499;-50
2021/04/16 07:48:16;;;;;;;13.30;8.67;;;12.40;85.60;;;;;;5034712;28;20542;-51
2021/04/16 07:50:44;;;;;;;11.17;8.23;;;12.30;85.30;;;;;;5046628;28;20972;-51
2021/04/16 07:53:27;;;;;;;14.50;8.90;;;13.30;82.90;;;;;;5049489;28;20460;-51
2021/04/16 07:56:07;;;;;;;11.00;8.60;;;12.40;82.60;;;;;;5046870;28;20482;-51
2021/04/16 07:58:35;;;;;;;12.43;8.93;;;12.70;84.40;;;;;;5046395;28;20470;-54
2021/04/16 08:01:12;;;;;;;10.40;8.33;;;12.30;85.70;;;;;;5048229;28;20463;-51
2021/04/16 08:03:47;;;;;;;11.10;8.73;;;11.60;84.90;;;;;;5055035;28;20860;-51
2021/04/16 08:06:33;;;;;;;10.80;8.50;;;12.00;86.20;;;;;;5082265;22;20498;-51
2021/04/16 08:09:01;;;;;;;11.90;7.83;;;11.50;86.90;;;;;;5068581;28;20442;-52
2021/04/16 08:11:32;;;;;;;12.30;9.30;;;12.70;83.80;;;;;;5073480;28;20459;-52
2021/04/16 08:14:01;;;;;;;19.40;9.87;;;12.70;82.20;;;;;;5074517;28;20783;-52
2021/04/16 08:16:32;;;;;;;12.23;9.07;;;12.90;82.10;;;;;;5065685;28;20562;-52
2021/04/16 08:19:11;;;;;;;12.50;9.23;;;12.60;82.10;;;;;;5053874;28;20463;-52
2021/04/16 08:21:40;;;;;;;16.20;9.30;;;12.20;83.90;;;;;;5053829;28;21018;-52
2021/04/16 08:24:14;;;;;;;12.60;8.80;;;12.60;84.10;;;;;;5053770;28;20487;-50
2021/04/16 08:26:46;;;;;;;13.23;8.83;;;12.10;86.60;;;;;;5054315;28;20471;-53
2021/04/16 08:29:24;;;;;;;13.90;8.73;;;12.20;87.70;;;;;;5052629;28;20470;-52
2021/04/16 08:31:56;;;;;;;15.33;9.40;;;11.60;90.70;;;;;;5053246;28;20467;-52
2021/04/16 08:34:28;;;;;;;10.77;8.60;;;11.20;91.50;;;;;;5049984;28;20521;-51
2021/04/16 08:36:58;;;;;;;18.60;9.70;;;11.00;92.00;;;;;;5032557;28;20484;-52
2021/04/16 08:39:30;;;;;;;13.43;8.67;;;10.40;92.60;;;;;;5049674;28;20471;-52
2021/04/16 08:42:00;;;;;;;12.20;9.00;;;11.00;90.00;;;;;;5053198;28;20964;-52
2021/04/16 08:44:32;;;;;;;11.83;8.87;;;10.60;90.70;;;;;;5052324;28;20479;-52
2021/04/16 08:46:59;;;;;;;12.77;9.37;;;11.10;90.70;;;;;;5052608;28;20486;-52
2021/04/16 08:49:29;;;;;;;14.57;8.93;;;11.20;90.30;;;;;;5052135;28;20524;-52
2021/04/16 08:52:00;;;;;;;12.27;9.20;;;11.00;88.50;;;;;;5054367;28;20444;-51
2021/04/16 08:54:29;;;;;;;11.80;8.60;;;11.20;90.10;;;;;;5053054;28;20461;-52
2021/04/16 08:57:00;;;;;;;12.00;8.57;;;11.50;89.70;;;;;;5053227;28;20475;-52
2021/04/16 08:59:31;;;;;;;14.77;8.80;;;10.90;90.50;;;;;;5051163;28;20851;-52
2021/04/16 09:02:15;;;;;;;14.50;9.40;;;11.30;88.60;;;;;;5053039;28;20602;-52
2021/04/16 09:04:48;;;;;;;11.57;8.63;;;12.50;85.50;;;;;;5053679;28;20486;-52
2021/04/16 09:07:37;;;;;;;13.60;9.47;;;13.30;79.50;;;;;;5051005;28;20530;-52
2021/04/16 09:10:21;;;;;;;14.67;9.83;;;13.30;83.20;;;;;;5048370;28;20968;-52
2021/04/16 09:12:52;;;;;;;18.13;10.57;;;11.70;89.30;;;;;;5033641;28;20486;-52
2021/04/16 09:15:42;;;;;;;13.37;10.20;;;11.50;88.60;;;;;;5053291;28;20439;-52
2021/04/16 09:18:33;;;;;;;14.03;9.63;;;11.50;90.80;;;;;;5052345;28;20455;-52
2021/04/16 09:21:23;;;;;;;15.83;10.80;;;12.30;90.50;;;;;;5047898;28;20464;-52
2021/04/16 09:24:10;;;;;;;15.40;10.13;;;12.40;85.30;;;;;;5046562;28;20483;-51
2021/04/16 09:26:57;;;;;;;14.20;9.87;;;12.10;90.50;;;;;;5051367;28;20483;-52
2021/04/16 09:29:52;;;;;;;11.40;8.67;;;11.30;89.90;;;;;;5050498;28;20447;-51
2021/04/16 09:32:46;;;;;;;12.27;9.57;;;12.10;84.90;;;;;;5051516;28;20473;-52
2021/04/16 09:36:02;;;;;;;12.70;9.97;;;12.20;89.50;;;;;;5041219;28;20448;-53
2021/04/16 09:38:55;;;;;;;13.43;9.97;;;12.50;88.00;;;;;;5050476;28;20478;-50
2021/04/16 09:41:35;;;;;;;14.83;10.30;;;12.90;83.70;;;;;;5052935;28;20459;-50
2021/04/16 09:44:40;;;;;;;13.17;9.87;;;12.70;87.20;;;;;;5052678;28;20575;-49
2021/04/16 09:47:07;;;;;;;13.63;10.30;;;12.30;90.90;;;;;;5035238;28;21172;-50
2021/04/16 09:49:40;;;;;;;12.53;9.33;;;12.40;84.20;;;;;;5051874;28;20887;-50
2021/04/16 09:52:39;;;;;;;14.30;11.10;;;13.50;83.00;;;;;;5051958;28;20471;-50
2021/04/16 09:55:45;;;;;;;14.63;10.27;;;13.10;85.80;;;;;;5042839;28;20498;-50
2021/04/16 09:58:32;;;;;;;15.63;11.17;;;12.60;87.90;;;;;;5025629;28;20886;-50
2021/04/16 10:01:06;;;;;;;14.23;10.40;;;11.00;90.70;;;;;;5051109;28;20513;-50
2021/04/16 10:03:46;;;;;;;19.17;10.83;;;11.00;90.80;;;;;;5049611;28;20504;-52
2021/04/16 10:06:22;;;;;;;15.20;11.10;;;10.50;91.60;;;;;;5049661;28;20495;-53
2021/04/16 10:09:05;;;;;;;13.80;10.10;;;10.70;90.90;;;;;;5045045;28;20443;-52
2021/04/16 10:11:32;;;;;;;17.33;10.60;;;11.10;90.40;;;;;;5051770;28;21026;-53
2021/04/16 10:14:14;;;;;;;14.13;10.10;;;11.30;87.50;;;;;;5051646;28;20815;-53
2021/04/16 10:16:42;;;;;;;14.77;11.13;;;12.50;85.00;;;;;;5051232;28;20472;-50
2021/04/16 10:19:14;;;;;;;16.07;11.73;;;12.60;87.60;;;;;;5049790;28;20981;-50
2021/04/16 10:21:42;;;;;;;13.87;10.33;;;11.90;87.70;;;;;;5051269;28;20462;-50
2021/04/16 12:38:15;;;;;;;13.80;9.17;;;11.10;92.00;;;;;;5074233;28;20490;-50
2021/04/16 12:40:42;;;;;;;12.00;8.57;;;11.00;90.00;;;;;;5074251;28;20818;-50
2021/04/16 12:43:09;;;;;;;12.47;8.90;;;10.80;90.70;;;;;;5050515;28;20500;-51
2021/04/16 12:45:35;;;;;;;11.90;8.37;;;11.00;91.20;;;;;;5053861;28;20513;-51
2021/04/16 12:48:03;;;;;;;11.80;8.23;;;10.80;90.20;;;;;;5053781;28;20458;-51
2021/04/16 12:50:32;;;;;;;9.37;7.50;;;10.80;89.60;;;;;;5053943;28;20459;-50
2021/04/16 12:52:59;;;;;;;11.47;8.50;;;11.10;89.00;;;;;;5053794;28;20459;-51
2021/04/16 12:55:25;;;;;;;10.00;8.00;;;10.70;86.70;;;;;;5047493;28;20833;-51
2021/04/16 12:57:54;;;;;;;10.67;8.30;;;10.60;90.10;;;;;;5033976;28;20888;-51
2021/04/16 13:00:23;;;;;;;9.80;7.67;;;10.80;87.10;;;;;;5052319;28;20450;-50
2021/04/16 13:02:57;;;;;;;11.30;8.67;;;10.40;90.10;;;;;;5053892;28;20454;-51
2021/04/16 13:05:26;;;;;;;9.27;8.07;;;10.60;90.20;;;;;;5064871;28;20480;-51
2021/04/16 13:07:52;;;;;;;10.07;7.73;;;10.70;90.90;;;;;;5073533;28;20447;-51
2021/04/16 13:10:20;;;;;;;9.73;7.93;;;10.70;89.10;;;;;;5036341;28;20514;-50
2021/04/16 13:12:46;;;;;;;9.87;8.40;;;10.80;87.60;;;;;;5034792;28;20836;-51
2021/04/16 13:15:14;;;;;;;11.10;8.57;;;11.20;91.10;;;;;;5053632;28;20442;-49
2021/04/16 13:17:44;;;;;;;9.83;8.07;;;10.90;90.40;;;;;;5065367;28;20469;-50
2021/04/16 13:20:14;;;;;;;10.43;8.40;;;10.50;89.60;;;;;;5073485;28;20497;-51
2021/04/16 13:22:42;;;;;;;10.60;8.30;;;10.50;89.60;;;;;;5073535;28;21002;-51
2021/04/16 13:25:10;;;;;;;10.13;7.83;;;10.60;90.90;;;;;;5059338;28;20486;-51
2021/04/16 13:27:40;;;;;;;12.60;8.40;;;10.70;90.30;;;;;;5053269;28;20474;-52
2021/04/16 13:30:10;;;;;;;11.00;8.30;;;11.00;91.60;;;;;;5053706;28;20449;-52
2021/04/16 13:32:41;;;;;;;9.57;7.47;;;10.60;88.30;;;;;;5053269;28;20451;-51
2021/04/16 13:35:11;;;;;;;8.47;7.10;;;11.10;90.00;;;;;;5053274;28;20446;-50
2021/04/16 13:37:37;;;;;;;9.87;7.30;;;11.10;88.40;;;;;;5052951;28;20474;-51
2021/04/16 13:40:06;;;;;;;9.77;7.77;;;11.20;87.10;;;;;;5051761;28;20454;-50
2021/04/16 13:42:33;;;;;;;9.50;7.43;;;11.00;87.50;;;;;;5052950;28;20453;-51
2021/04/16 13:44:59;;;;;;;10.17;8.10;;;11.30;88.90;;;;;;5052681;28;20467;-51
2021/04/16 13:47:34;;;;;;;11.97;8.17;;;11.60;89.00;;;;;;5053062;28;20483;-51
2021/04/16 13:50:01;;;;;;;9.97;7.60;;;11.10;83.60;;;;;;5052987;28;20446;-50
2021/04/16 13:52:28;;;;;;;9.47;7.80;;;11.00;84.30;;;;;;5053207;28;20456;-51
2021/04/16 13:54:54;;;;;;;9.70;7.47;;;11.40;89.80;;;;;;5070735;28;20451;-51
2021/04/16 13:57:22;;;;;;;8.57;6.97;;;11.50;84.80;;;;;;5052571;28;20490;-50
2021/04/16 13:59:48;;;;;;;11.37;6.90;;;12.00;83.40;;;;;;5052111;28;20554;-51
2021/04/16 14:02:18;;;;;;;9.60;6.80;;;11.60;83.10;;;;;;5052659;28;20455;-50
2021/04/16 14:04:46;;;;;;;7.93;7.07;;;11.90;82.20;;;;;;5052727;28;20487;-51
2021/04/16 14:07:14;;;;;;;8.63;7.30;;;12.10;84.00;;;;;;5052556;28;20483;-51
2021/04/16 14:09:41;;;;;;;9.50;7.67;;;11.90;82.00;;;;;;5086162;22;20510;-54
2021/04/16 14:12:09;;;;;;;9.03;7.27;;;11.40;82.80;;;;;;5054402;28;20447;-54
2021/04/16 14:14:36;;;;;;;10.03;7.73;;;11.40;84.10;;;;;;5052171;28;20446;-54
2021/04/16 14:17:06;;;;;;;9.90;7.30;;;11.30;81.90;;;;;;5052410;28;20454;-54
2021/04/16 14:19:42;;;;;;;7.87;7.03;;;11.00;83.70;;;;;;5065430;28;20474;-54
2021/04/16 14:22:11;;;;;;;9.00;7.20;;;10.80;84.50;;;;;;5067947;28;20447;-54
2021/04/16 14:24:38;;;;;;;9.40;7.50;;;10.90;86.20;;;;;;5061882;28;20578;-54
2021/04/16 14:27:05;;;;;;;8.80;6.80;;;10.70;84.70;;;;;;5051993;28;20462;-54
2021/04/16 14:29:31;;;;;;;9.77;7.50;;;10.70;85.90;;;;;;5069092;28;20467;-54
2021/04/16 14:31:59;;;;;;;9.43;6.83;;;10.80;87.70;;;;;;5057758;28;20504;-53
2021/04/16 14:34:30;;;;;;;9.40;7.20;;;10.40;85.00;;;;;;5063223;28;20454;-54
2021/04/16 14:36:56;;;;;;;10.67;7.53;;;10.50;84.60;;;;;;5052281;28;20501;-54
2021/04/16 14:39:23;;;;;;;8.03;6.60;;;10.60;86.90;;;;;;5051626;28;20475;-54
2021/04/16 14:41:49;;;;;;;9.90;7.80;;;10.60;86.20;;;;;;5052318;28;20461;-54
2021/04/16 14:44:17;;;;;;;8.87;7.40;;;10.50;86.30;;;;;;5051640;28;20479;-54
2021/04/16 14:46:45;;;;;;;11.67;7.50;;;10.40;86.30;;;;;;5051884;28;20881;-54
2021/04/16 14:49:13;;;;;;;9.30;6.97;;;10.70;85.70;;;;;;5051738;28;20531;-54
2021/04/16 14:51:41;;;;;;;7.83;6.50;;;10.70;86.00;;;;;;5065054;28;20446;-54
2021/04/16 14:54:15;;;;;;;9.30;7.10;;;10.90;86.10;;;;;;5064146;28;20447;-54
2021/04/16 14:56:42;;;;;;;8.00;7.10;;;10.50;84.40;;;;;;5052179;28;20870;-54
2021/04/16 14:59:15;;;;;;;8.20;7.07;;;10.10;86.10;;;;;;5051501;28;20473;-54
2021/04/16 15:01:41;;;;;;;9.37;6.90;;;10.40;87.70;;;;;;5051689;28;21017;-56
2021/04/16 15:04:07;;;;;;;6.63;5.87;;;10.60;87.50;;;;;;5051595;28;20483;-55
2021/04/16 15:06:35;;;;;;;9.20;6.93;;;10.70;85.30;;;;;;5051569;28;20825;-56
2021/04/16 15:09:07;;;;;;;8.00;6.33;;;10.50;87.80;;;;;;5051342;28;20863;-55
2021/04/16 15:11:37;;;;;;;9.50;6.90;;;10.60;88.30;;;;;;5050849;28;20485;-55
2021/04/16 15:14:06;;;;;;;8.20;6.50;;;10.70;84.40;;;;;;5051933;28;20455;-56